createdAt,value
2019-02-12T00:02:27.181Z,2.80
2019-02-12T00:05:29.850Z,0.90
2019-02-12T00:08:32.692Z,2.40
2019-02-12T00:11:35.474Z,5.40
2019-02-12T00:14:38.214Z,4.13
2019-02-12T00:17:40.960Z,1.90
2019-02-12T00:20:43.596Z,0.70
2019-02-12T00:23:46.382Z,1.70
2019-02-12T00:26:49.087Z,4.40
2019-02-12T00:29:51.829Z,1.87
2019-02-12T00:32:54.736Z,1.53
2019-02-12T00:35:57.556Z,1.93
2019-02-12T00:39:00.284Z,3.43
2019-02-12T00:42:06.384Z,2.87
2019-02-12T00:45:09.280Z,1.87
2019-02-12T00:48:12.006Z,4.17
2019-02-12T00:51:17.847Z,1.53
2019-02-12T00:54:21.246Z,0.80
2019-02-12T00:57:26.309Z,1.57
2019-02-12T01:00:29.927Z,1.23
2019-02-12T01:03:33.779Z,0.73
2019-02-12T01:06:36.638Z,1.30
2019-02-12T01:09:39.324Z,2.07
2019-02-12T01:12:42.066Z,1.10
2019-02-12T01:15:44.909Z,1.40
2019-02-12T01:18:50.617Z,2.67
2019-02-12T01:21:53.301Z,1.13
2019-02-12T01:24:56.168Z,2.23
2019-02-12T01:27:58.867Z,1.33
2019-02-12T01:31:01.607Z,2.13
2019-02-12T01:34:04.416Z,2.03
2019-02-12T01:37:07.259Z,3.60
2019-02-12T01:40:11.773Z,0.90
2019-02-12T01:43:14.557Z,2.33
2019-02-12T01:46:17.349Z,2.40
2019-02-12T01:49:22.142Z,0.80
2019-02-12T01:52:24.750Z,1.03
2019-02-12T01:55:27.423Z,1.00
2019-02-12T01:58:30.101Z,0.63
2019-02-12T02:01:32.866Z,1.37
2019-02-12T02:04:35.710Z,1.20
2019-02-12T02:07:39.460Z,0.90
2019-02-12T02:10:44.540Z,2.83
2019-02-12T02:13:47.219Z,0.70
2019-02-12T02:16:52.900Z,1.10
2019-02-12T02:19:58.443Z,3.13
2019-02-12T02:23:01.164Z,5.03
2019-02-12T02:26:04.078Z,0.70
2019-02-12T02:29:06.789Z,0.70
2019-02-12T02:32:09.551Z,1.03
2019-02-12T02:35:13.629Z,1.60
2019-02-12T02:38:16.426Z,0.80
2019-02-12T02:41:19.299Z,2.93
2019-02-12T02:44:22.167Z,1.27
2019-02-12T02:47:25.041Z,2.43
2019-02-12T02:50:27.702Z,0.80
2019-02-12T02:53:30.287Z,2.10
2019-02-12T02:56:33.123Z,1.47
2019-02-12T02:59:38.592Z,3.43
2019-02-12T03:02:41.484Z,1.67
2019-02-12T03:05:47.194Z,2.33
2019-02-12T03:08:50.010Z,1.57
2019-02-12T03:11:52.746Z,1.90
2019-02-12T03:14:55.521Z,3.33
2019-02-12T03:17:58.478Z,0.90
2019-02-12T03:21:01.331Z,2.20
2019-02-12T03:24:04.213Z,1.40
2019-02-12T03:27:09.021Z,1.10
2019-02-12T03:30:11.828Z,0.90
2019-02-12T03:33:14.536Z,0.80
2019-02-12T03:36:18.499Z,1.10
2019-02-12T03:39:21.271Z,1.33
2019-02-12T03:42:23.972Z,1.63
2019-02-12T03:45:29.489Z,1.60
2019-02-12T03:48:32.204Z,0.90
2019-02-12T03:51:34.747Z,1.87
2019-02-12T03:54:37.440Z,2.70
2019-02-12T03:57:40.540Z,1.37
2019-02-12T04:00:43.323Z,1.27
2019-02-12T04:03:46.243Z,1.10
2019-02-12T04:06:48.937Z,4.10
2019-02-12T04:09:51.683Z,2.33
2019-02-12T04:12:54.502Z,2.50
2019-02-12T04:15:57.235Z,2.40
2019-02-12T04:19:00.005Z,1.03
2019-02-12T04:22:02.659Z,4.23
2019-02-12T04:25:05.481Z,3.63
2019-02-12T04:28:08.194Z,2.03
2019-02-12T04:31:11.034Z,4.57
2019-02-12T04:34:13.763Z,4.73
2019-02-12T04:37:16.569Z,6.73
2019-02-12T04:40:19.310Z,8.47
2019-02-12T04:43:22.080Z,1.90
2019-02-12T04:46:25.083Z,1.27
2019-02-12T04:49:27.825Z,2.83
2019-02-12T04:52:31.876Z,1.07
2019-02-12T04:55:35.127Z,2.20
2019-02-12T04:58:37.918Z,1.53
2019-02-12T05:01:40.695Z,3.70
2019-02-12T05:04:43.536Z,0.97
2019-02-12T05:07:46.231Z,1.00
2019-02-12T05:10:56.440Z,1.50
2019-02-12T05:13:59.213Z,7.83
2019-02-12T05:17:01.873Z,1.90
2019-02-12T05:20:06.332Z,1.00
2019-02-12T05:23:09.138Z,2.23
2019-02-12T05:26:11.984Z,7.50
2019-02-12T05:29:14.757Z,3.33
2019-02-12T05:32:17.620Z,0.60
2019-02-12T05:35:20.327Z,3.57
2019-02-12T05:38:23.165Z,1.40
2019-02-12T05:41:25.854Z,4.63
2019-02-12T05:44:28.640Z,2.97
2019-02-12T05:47:31.336Z,6.57
2019-02-12T05:50:34.154Z,3.27
2019-02-12T05:53:37.029Z,2.07
2019-02-12T05:56:39.893Z,2.73
2019-02-12T05:59:42.662Z,1.30
2019-02-12T06:02:45.400Z,3.47
2019-02-12T06:05:48.253Z,1.27
2019-02-12T06:08:51.130Z,1.07
2019-02-12T06:11:53.962Z,9.57
2019-02-12T06:14:56.749Z,2.63
2019-02-12T06:17:59.608Z,7.77
2019-02-12T06:21:02.227Z,1.57
2019-02-12T06:24:05.035Z,4.03
2019-02-12T06:27:07.729Z,14.63
2019-02-12T06:30:10.419Z,4.83
2019-02-12T06:33:13.089Z,3.03
2019-02-12T06:36:15.908Z,9.40
2019-02-12T06:39:18.665Z,1.50
2019-02-12T06:42:21.827Z,2.37
2019-02-12T06:45:24.631Z,1.20
2019-02-12T06:48:27.376Z,1.90
2019-02-12T06:51:30.211Z,8.67
2019-02-12T06:54:33.014Z,2.00
2019-02-12T06:57:36.843Z,3.27
2019-02-12T07:00:40.709Z,1.70
2019-02-12T07:04:01.144Z,2.10
2019-02-12T07:07:41.892Z,6.37
2019-02-12T07:10:44.938Z,4.73
2019-02-12T07:13:56.126Z,4.83
2019-02-12T07:17:32.487Z,4.97
2019-02-12T07:21:11.119Z,16.17
2019-02-12T07:24:44.313Z,3.63
2019-02-12T07:28:38.119Z,1.87
2019-02-12T07:32:17.682Z,1.17
2019-02-12T07:36:04.924Z,4.57
2019-02-12T07:39:38.711Z,1.63
2019-02-12T07:43:14.341Z,2.37
2019-02-12T07:46:45.417Z,2.53
2019-02-12T07:50:15.734Z,1.87
2019-02-12T07:53:44.327Z,2.50
2019-02-12T07:57:29.110Z,4.40
2019-02-12T08:01:12.420Z,1.80
2019-02-12T08:04:55.774Z,4.50
2019-02-12T08:08:47.599Z,6.43
2019-02-12T08:12:12.873Z,11.63
2019-02-12T08:15:44.963Z,3.27
2019-02-12T08:19:29.405Z,4.90
2019-02-12T08:23:19.715Z,6.07
2019-02-12T08:27:03.629Z,5.73
2019-02-12T08:30:37.302Z,1.63
2019-02-12T08:34:18.077Z,24.23
2019-02-12T08:38:08.851Z,7.80
2019-02-12T08:41:41.547Z,2.57
2019-02-12T08:44:56.109Z,8.47
2019-02-12T08:48:12.829Z,9.23
2019-02-12T08:52:03.861Z,4.43
2019-02-12T08:55:50.103Z,3.53
2019-02-12T08:59:21.035Z,1.97
2019-02-12T09:02:58.211Z,6.20
2019-02-12T09:06:32.257Z,3.23
2019-02-12T09:10:12.460Z,5.83
2019-02-12T09:13:44.924Z,2.77
2019-02-12T09:17:37.194Z,6.47
2019-02-12T09:20:57.083Z,3.23
2019-02-12T09:24:40.673Z,13.13
2019-02-12T09:28:15.851Z,6.60
2019-02-12T09:32:00.122Z,17.97
2019-02-12T09:35:41.605Z,7.10
2019-02-12T09:39:28.196Z,7.10
2019-02-12T09:43:25.128Z,5.63
2019-02-12T09:46:41.765Z,3.40
2019-02-12T09:50:41.975Z,5.90
2019-02-12T09:54:21.598Z,1.70
2019-02-12T09:57:46.673Z,7.40
2019-02-12T10:01:33.355Z,6.30
2019-02-12T10:05:13.275Z,9.27
2019-02-12T10:09:04.094Z,6.00
2019-02-12T10:12:57.615Z,7.60
2019-02-12T10:16:32.629Z,2.60
2019-02-12T10:19:46.292Z,1.73
2019-02-12T10:23:38.899Z,6.50
2019-02-12T10:26:45.555Z,4.40
2019-02-12T10:30:16.219Z,5.33
2019-02-12T10:33:19.078Z,4.50
2019-02-12T10:36:22.625Z,16.50
2019-02-12T10:39:25.393Z,2.93
2019-02-12T10:42:28.167Z,5.80
2019-02-12T10:45:31.169Z,2.33
2019-02-12T10:48:34.040Z,6.60
2019-02-12T10:51:37.307Z,1.47
2019-02-12T10:54:39.999Z,3.43
2019-02-12T10:57:45.086Z,7.03
2019-02-12T11:00:48.615Z,1.37
2019-02-12T11:03:51.436Z,2.90
2019-02-12T11:06:54.303Z,3.07
2019-02-12T11:09:57.455Z,7.13
2019-02-12T11:13:00.184Z,2.87
2019-02-12T11:16:03.017Z,3.80
2019-02-12T11:19:05.761Z,1.00
2019-02-12T11:22:08.856Z,1.80
2019-02-12T11:25:11.517Z,1.63
2019-02-12T11:28:14.274Z,2.90
2019-02-12T11:31:17.040Z,3.37
2019-02-12T11:34:19.741Z,5.10
2019-02-12T11:37:22.590Z,2.67
2019-02-12T11:40:25.288Z,1.27
2019-02-12T11:43:28.276Z,1.57
2019-02-12T11:46:31.197Z,4.10
2019-02-12T11:49:34.026Z,1.90
2019-02-12T11:52:36.838Z,1.70
2019-02-12T11:55:41.071Z,2.20
2019-02-12T11:58:44.306Z,1.67
2019-02-12T12:01:47.163Z,1.67
2019-02-12T12:04:50.126Z,2.13
2019-02-12T12:07:53.305Z,2.50
2019-02-12T12:10:56.096Z,7.63
2019-02-12T12:13:58.918Z,3.77
2019-02-12T12:17:01.849Z,12.53
2019-02-12T12:20:04.983Z,0.77
2019-02-12T12:23:07.773Z,6.23
2019-02-12T12:26:10.508Z,2.90
2019-02-12T12:29:13.296Z,0.50
2019-02-12T12:32:16.173Z,6.33
2019-02-12T12:35:18.860Z,5.10
2019-02-12T12:38:21.528Z,1.37
2019-02-12T12:41:24.846Z,5.47
2019-02-12T12:44:27.615Z,6.23
2019-02-12T12:47:30.445Z,1.87
2019-02-12T12:50:33.095Z,1.03
2019-02-12T12:53:36.079Z,2.33
2019-02-12T12:56:38.888Z,4.43
2019-02-12T12:59:41.580Z,3.93
2019-02-12T13:02:44.298Z,0.87
2019-02-12T13:05:47.042Z,1.47
2019-02-12T13:08:50.296Z,3.00
2019-02-12T13:11:55.985Z,1.43
2019-02-12T13:14:58.905Z,2.60
2019-02-12T13:18:02.236Z,2.03
2019-02-12T13:21:05.994Z,3.63
2019-02-12T13:24:09.154Z,1.13
2019-02-12T13:27:11.887Z,1.77
2019-02-12T13:30:15.240Z,6.80
2019-02-12T13:33:18.068Z,3.77
2019-02-12T13:36:20.688Z,4.43
2019-02-12T13:39:25.191Z,4.87
2019-02-12T13:42:28.196Z,6.10
2019-02-12T13:45:31.025Z,3.63
2019-02-12T13:48:33.865Z,1.97
2019-02-12T13:51:36.700Z,5.57
2019-02-12T13:54:39.716Z,14.30
2019-02-12T13:57:42.786Z,5.23
2019-02-12T14:00:46.024Z,5.07
2019-02-12T14:03:48.855Z,5.00
2019-02-12T14:06:51.953Z,4.23
2019-02-12T14:09:55.038Z,2.67
2019-02-12T14:12:57.892Z,3.43
2019-02-12T14:16:01.047Z,7.87
2019-02-12T14:19:05.133Z,2.43
2019-02-12T14:22:08.054Z,9.90
2019-02-12T14:25:11.151Z,4.07
2019-02-12T14:28:14.121Z,5.13
2019-02-12T14:31:17.169Z,4.70
2019-02-12T14:34:20.159Z,5.17
2019-02-12T14:37:23.538Z,7.80
2019-02-12T14:40:26.477Z,5.20
2019-02-12T14:43:29.385Z,11.90
2019-02-12T14:46:32.055Z,20.10
2019-02-12T14:49:35.206Z,3.40
2019-02-12T14:52:38.848Z,4.90
2019-02-12T14:55:42.122Z,10.83
2019-02-12T14:58:45.036Z,6.53
2019-02-12T15:01:47.823Z,10.53
2019-02-12T15:04:50.433Z,10.80
2019-02-12T15:07:53.134Z,7.57
2019-02-12T15:10:56.111Z,12.33
2019-02-12T15:14:00.037Z,9.23
2019-02-12T15:17:02.940Z,14.07
2019-02-12T15:20:07.160Z,8.80
2019-02-12T15:23:10.389Z,9.13
2019-02-12T15:26:13.230Z,12.10
2019-02-12T15:29:16.213Z,8.87
2019-02-12T15:32:19.176Z,8.80
2019-02-12T15:35:22.743Z,10.23
2019-02-12T15:38:26.204Z,7.00
2019-02-12T15:41:28.989Z,18.03
2019-02-12T15:44:32.132Z,14.07
2019-02-12T15:47:35.399Z,6.53
2019-02-12T15:50:38.393Z,7.43
2019-02-12T15:53:41.171Z,7.27
2019-02-12T15:56:44.072Z,10.47
2019-02-12T15:59:49.813Z,14.57
2019-02-12T16:02:54.535Z,9.63
2019-02-12T16:05:58.774Z,9.83
2019-02-12T16:09:01.756Z,10.73
2019-02-12T16:12:05.943Z,9.03
2019-02-12T16:15:11.735Z,10.60
2019-02-12T16:18:14.547Z,5.83
2019-02-12T16:21:17.393Z,9.90
2019-02-12T16:24:20.353Z,5.80
2019-02-12T16:27:23.314Z,11.83
2019-02-12T16:30:25.993Z,5.20
2019-02-12T16:33:28.763Z,5.50
2019-02-12T16:36:32.038Z,6.60
2019-02-12T16:39:34.975Z,6.97
2019-02-12T16:42:42.953Z,3.40
2019-02-12T16:45:52.544Z,6.93
2019-02-12T16:48:55.335Z,7.60
2019-02-12T16:51:58.453Z,3.73
2019-02-12T16:55:01.554Z,5.50
2019-02-12T16:58:05.565Z,9.43
2019-02-12T17:01:08.479Z,8.80
2019-02-12T17:04:11.592Z,10.73
2019-02-12T17:07:14.656Z,10.27
2019-02-12T17:10:17.649Z,4.93
2019-02-12T17:13:22.101Z,4.60
2019-02-12T17:16:25.657Z,10.00
2019-02-12T17:19:28.576Z,10.83
2019-02-12T17:22:31.475Z,5.47
2019-02-12T17:25:34.327Z,2.87
2019-02-12T17:28:37.092Z,7.30
2019-02-12T17:31:39.890Z,3.30
2019-02-12T17:34:42.724Z,6.37
2019-02-12T17:37:45.619Z,15.00
2019-02-12T17:40:48.352Z,8.97
2019-02-12T17:43:51.170Z,7.20
2019-02-12T17:46:54.053Z,10.00
2019-02-12T17:49:56.827Z,10.43
2019-02-12T17:52:59.628Z,4.40
2019-02-12T17:56:02.265Z,8.43
2019-02-12T17:59:05.020Z,6.87
2019-02-12T18:02:07.751Z,20.47
2019-02-12T18:05:10.540Z,12.37
2019-02-12T18:08:13.458Z,16.10
2019-02-12T18:11:16.232Z,12.97
2019-02-12T18:14:19.507Z,11.10
2019-02-12T18:17:25.418Z,7.97
2019-02-12T18:20:28.201Z,10.43
2019-02-12T18:23:31.179Z,16.20
2019-02-12T18:26:34.058Z,14.53
2019-02-12T18:29:37.002Z,13.03
2019-02-12T18:32:39.913Z,12.97
2019-02-12T18:35:42.632Z,16.83
2019-02-12T18:38:45.345Z,8.37
2019-02-12T18:41:48.148Z,23.77
2019-02-12T18:44:50.954Z,15.43
2019-02-12T18:47:53.614Z,15.93
2019-02-12T18:50:56.332Z,15.23
2019-02-12T18:53:59.128Z,19.17
2019-02-12T18:57:02.404Z,26.40
2019-02-12T19:00:06.378Z,15.10
2019-02-12T19:03:09.211Z,10.40
2019-02-12T19:06:12.083Z,13.83
2019-02-12T19:09:15.556Z,12.37
2019-02-12T19:12:18.265Z,20.63
2019-02-12T19:15:20.928Z,16.27
2019-02-12T19:18:31.252Z,13.97
2019-02-12T19:21:34.215Z,11.07
2019-02-12T19:24:37.041Z,15.37
2019-02-12T19:27:39.844Z,24.07
2019-02-12T19:30:42.733Z,18.33
2019-02-12T19:33:45.457Z,18.30
2019-02-12T19:36:48.163Z,9.93
2019-02-12T19:39:50.914Z,17.03
2019-02-12T19:42:53.773Z,13.97
2019-02-12T19:45:56.884Z,12.53
2019-02-12T19:48:59.989Z,18.47
2019-02-12T19:52:02.905Z,19.93
2019-02-12T19:55:06.386Z,23.37
2019-02-12T19:58:12.143Z,14.07
2019-02-12T20:01:15.151Z,14.47
2019-02-12T20:04:18.312Z,18.30
2019-02-12T20:07:21.340Z,19.93
2019-02-12T20:10:24.499Z,15.60
2019-02-12T20:13:27.509Z,26.37
2019-02-12T20:16:30.407Z,18.90
2019-02-12T20:19:33.169Z,27.17
2019-02-12T20:22:36.289Z,17.67
2019-02-12T20:25:39.247Z,18.00
2019-02-12T20:28:42.687Z,29.10
2019-02-12T20:31:45.595Z,17.67
2019-02-12T20:34:48.369Z,16.83
2019-02-12T20:37:51.080Z,23.40
2019-02-12T20:40:53.832Z,14.87
2019-02-12T20:43:56.618Z,23.60
2019-02-12T20:46:59.359Z,15.50
2019-02-12T20:50:02.149Z,16.17
2019-02-12T20:53:06.147Z,22.80
2019-02-12T20:56:09.083Z,20.20
2019-02-12T20:59:11.998Z,26.97
2019-02-12T21:02:14.934Z,29.87
2019-02-12T21:05:17.755Z,16.80
2019-02-12T21:08:20.927Z,28.00
2019-02-12T21:11:24.093Z,24.77
2019-02-12T21:14:26.715Z,26.33
2019-02-12T21:17:29.679Z,15.43
2019-02-12T21:20:32.608Z,33.30
2019-02-12T21:23:35.576Z,37.27
2019-02-12T21:26:38.479Z,34.87
2019-02-12T21:29:41.273Z,34.60
2019-02-12T21:32:43.882Z,26.80
2019-02-12T21:35:46.804Z,33.47
2019-02-12T21:38:50.832Z,28.63
2019-02-12T21:41:53.724Z,40.13
2019-02-12T21:44:56.607Z,33.90
2019-02-12T21:47:59.488Z,40.13
2019-02-12T21:51:02.713Z,31.47
2019-02-12T21:54:05.423Z,44.43
2019-02-12T21:57:08.467Z,34.60
2019-02-12T22:00:14.027Z,39.57
2019-02-12T22:03:17.053Z,36.53
2019-02-12T22:06:19.953Z,48.10
2019-02-12T22:09:22.684Z,40.57
2019-02-12T22:12:25.472Z,63.93
2019-02-12T22:15:28.176Z,74.00
2019-02-12T22:18:30.964Z,70.57
2019-02-12T22:21:37.824Z,75.90
2019-02-12T22:24:45.077Z,82.90
2019-02-12T22:27:48.215Z,178.47
2019-02-12T22:30:53.351Z,106.00
2019-02-12T22:33:59.699Z,101.87
2019-02-12T22:37:06.946Z,124.00
2019-02-12T22:40:10.608Z,164.33
2019-02-12T22:43:16.140Z,156.07
2019-02-12T22:46:22.716Z,210.27
2019-02-12T22:49:25.519Z,299.17
2019-02-12T22:52:28.551Z,162.23
2019-02-12T22:55:41.060Z,355.63
2019-02-12T22:58:45.591Z,466.40
2019-02-12T23:01:50.719Z,377.40
2019-02-12T23:04:55.445Z,419.60
2019-02-12T23:08:03.421Z,336.33
2019-02-12T23:11:06.362Z,536.27
2019-02-12T23:14:13.246Z,658.87
2019-02-12T23:17:19.710Z,621.17
2019-02-12T23:20:26.879Z,737.27
2019-02-12T23:23:35.413Z,684.23
2019-02-12T23:26:40.666Z,474.30
2019-02-12T23:29:43.712Z,608.00
2019-02-12T23:32:53.905Z,576.27
2019-02-12T23:35:59.776Z,470.70
2019-02-12T23:39:05.731Z,510.70
2019-02-12T23:42:10.939Z,491.80
2019-02-12T23:45:13.552Z,436.27
2019-02-12T23:48:16.424Z,505.77
2019-02-12T23:51:19.151Z,561.03
2019-02-12T23:54:21.853Z,455.13
2019-02-12T23:57:27.328Z,408.83
